Time;durP1;ratioP1;P1;durP2;ratioP2;P2;SDS_P1;SDS_P2;PMS_P1;PMS_P2;Temp;Humidity;BMP_temperature;BMP_pressure;BME280_temperature;BME280_humidity;BME280_pressure;Samples;Min_cycle;Max_cycle;Signal;HPM_P1;HPM_P2
2021/08/14 00:00:19;;;;;;;14.43;7.25;;;;;;;21.14;100.00;96431.91;1026790;28;20086;-70
2021/08/14 00:00:49;;;;;;;14.15;6.97;;;;;;;21.13;100.00;96433.00;1027142;28;20069;-69
2021/08/14 00:01:20;;;;;;;9.35;6.40;;;;;;;21.14;100.00;96429.25;1030952;28;20133;-68
2021/08/14 00:01:50;;;;;;;12.13;6.63;;;;;;;21.14;100.00;96429.25;1033848;28;20033;-66
2021/08/14 00:02:21;;;;;;;12.90;7.60;;;;;;;21.11;100.00;96429.88;1039095;28;20103;-70
2021/08/14 00:02:51;;;;;;;12.18;6.70;;;;;;;21.11;100.00;96430.63;1035120;28;20030;-71
2021/08/14 00:03:22;;;;;;;10.70;6.57;;;;;;;21.13;100.00;96428.47;1035046;28;20041;-70
2021/08/14 00:03:52;;;;;;;10.43;6.55;;;;;;;21.13;100.00;96427.69;1030617;28;20026;-70
2021/08/14 00:04:23;;;;;;;11.70;6.53;;;;;;;21.14;100.00;96429.25;1031193;28;20042;-71
2021/08/14 00:04:53;;;;;;;13.57;6.88;;;;;;;21.12;100.00;96418.06;1035060;28;20576;-70
2021/08/14 00:05:24;;;;;;;12.15;7.30;;;;;;;21.15;100.00;96422.78;1026559;28;20053;-69
2021/08/14 00:05:54;;;;;;;12.73;7.40;;;;;;;21.15;100.00;96425.47;1027057;28;20015;-70
2021/08/14 00:06:25;;;;;;;13.25;6.80;;;;;;;21.16;100.00;96427.06;1027144;28;20050;-67
2021/08/14 00:06:55;;;;;;;16.08;7.38;;;;;;;21.13;100.00;96422.34;1035041;28;20029;-70
2021/08/14 00:07:26;;;;;;;12.00;7.30;;;;;;;21.14;100.00;96424.69;1030868;28;20444;-71
2021/08/14 00:07:56;;;;;;;11.07;6.82;;;;;;;21.14;100.00;96431.91;1031034;28;20030;-71
2021/08/14 00:08:27;;;;;;;8.43;6.70;;;;;;;21.14;100.00;96429.25;1031072;28;20034;-70
2021/08/14 00:08:57;;;;;;;10.40;7.40;;;;;;;21.16;100.00;96432.38;1037205;28;20036;-71
2021/08/14 00:09:28;;;;;;;10.18;6.15;;;;;;;21.13;100.00;96417.78;1030819;28;20030;-69
2021/08/14 00:09:58;;;;;;;14.48;7.43;;;;;;;21.16;100.00;96427.06;1027021;28;20037;-70
2021/08/14 00:10:28;;;;;;;10.68;6.78;;;;;;;21.16;100.00;96427.84;1027744;28;20105;-70
2021/08/14 00:10:59;;;;;;;18.45;7.30;;;;;;;21.15;100.00;96436.13;1029117;28;20112;-70
2021/08/14 00:11:29;;;;;;;11.32;6.57;;;;;;;21.15;100.00;96436.13;1023122;28;20197;-70
2021/08/14 00:12:03;;;;;;;10.38;6.90;;;;;;;21.13;100.00;96433.00;1024847;28;20063;-70
2021/08/14 00:12:33;;;;;;;12.52;6.63;;;;;;;21.12;100.00;96444.78;1027362;28;20146;-70
2021/08/14 00:13:04;;;;;;;12.55;6.88;;;;;;;21.08;100.00;96441.16;1033781;28;20030;-71
2021/08/14 00:13:34;;;;;;;13.52;6.95;;;;;;;21.05;100.00;96444.44;1031702;28;20033;-71
2021/08/14 00:14:05;;;;;;;15.68;6.95;;;;;;;21.01;100.00;96446.97;1034205;28;20022;-70
2021/08/14 00:14:35;;;;;;;11.95;6.97;;;;;;;20.99;100.00;96449.16;1029847;28;20061;-71
2021/08/14 00:15:06;;;;;;;12.65;6.63;;;;;;;20.97;100.00;96450.56;1027284;28;20031;-68
2021/08/14 00:15:37;;;;;;;11.55;6.65;;;;;;;20.87;100.00;96441.75;1030446;28;20019;-71
2021/08/14 00:16:07;;;;;;;12.32;7.18;;;;;;;20.93;100.00;96461.88;1031259;28;20506;-68
2021/08/14 00:16:38;;;;;;;11.88;7.40;;;;;;;20.93;100.00;96456.53;1026800;28;20393;-68
2021/08/14 00:17:08;;;;;;;15.43;7.45;;;;;;;20.91;100.00;96456.03;1022969;28;20030;-70
2021/08/14 00:17:38;;;;;;;10.75;6.97;;;;;;;20.82;100.00;96447.22;1027061;28;20022;-68
2021/08/14 00:18:09;;;;;;;17.75;7.57;;;;;;;20.75;100.00;96433.56;1030737;28;20054;-68
2021/08/14 00:18:39;;;;;;;10.50;6.43;;;;;;;20.89;100.00;96452.91;1034910;28;20560;-70
2021/08/14 00:19:10;;;;;;;13.05;7.50;;;;;;;20.88;100.00;96454.00;1030845;28;20551;-70
2021/08/14 00:19:40;;;;;;;13.23;7.22;;;;;;;20.89;100.00;96455.59;1030734;28;20026;-70
2021/08/14 00:20:11;;;;;;;11.20;7.18;;;;;;;20.83;100.00;96451.50;1034614;28;20395;-70
2021/08/14 00:20:42;;;;;;;14.80;7.60;;;;;;;20.88;100.00;96451.31;1033359;28;20033;-71
2021/08/14 00:21:12;;;;;;;12.18;6.68;;;;;;;20.90;100.00;96448.38;1034443;28;20033;-69
2021/08/14 00:21:42;;;;;;;11.38;6.57;;;;;;;20.90;100.00;96451.03;1029771;28;20022;-71
2021/08/14 00:22:13;;;;;;;14.55;7.32;;;;;;;20.87;100.00;96448.97;1038700;28;20017;-70
2021/08/14 00:22:43;;;;;;;12.40;6.75;;;;;;;20.88;100.00;96447.88;1034874;28;20029;-71
2021/08/14 00:23:14;;;;;;;13.95;7.47;;;;;;;20.86;100.00;96445.53;1026335;28;20025;-71
2021/08/14 00:23:44;;;;;;;10.73;6.40;;;;;;;20.85;100.00;96445.81;1026496;28;20031;-70
2021/08/14 00:24:15;;;;;;;11.68;6.75;;;;;;;20.84;100.00;96441.59;1026375;28;20022;-70
2021/08/14 00:24:45;;;;;;;10.65;6.47;;;;;;;20.84;100.00;96447.72;1030852;28;20022;-68
2021/08/14 00:25:16;;;;;;;10.95;7.10;;;;;;;20.82;100.00;96441.91;1030976;28;20477;-71
2021/08/14 00:25:46;;;;;;;12.90;6.78;;;;;;;20.83;100.00;96442.69;1031695;28;20445;-69
2021/08/14 00:26:17;;;;;;;11.95;6.95;;;;;;;20.75;100.00;96428.22;1030465;28;20018;-68
2021/08/14 00:26:47;;;;;;;12.65;7.00;;;;;;;20.81;100.00;96437.66;1023017;29;20031;-68
2021/08/14 00:27:17;;;;;;;10.98;7.22;;;;;;;20.78;100.00;96432.94;1021080;28;20122;-70
2021/08/14 00:27:48;;;;;;;15.48;7.30;;;;;;;20.78;100.00;96430.28;1026749;28;20031;-66
2021/08/14 00:28:18;;;;;;;15.10;7.47;;;;;;;20.75;100.00;96422.91;1034773;28;20034;-68
2021/08/14 00:28:49;;;;;;;7.05;6.15;;;;;;;20.81;100.00;96435.00;1039086;28;20071;-67
2021/08/14 00:29:19;;;;;;;10.60;7.68;;;;;;;20.92;100.00;96433.63;1038648;28;20022;-69
2021/08/14 00:29:50;;;;;;;11.80;7.18;;;;;;;20.89;100.00;96420.91;1039024;28;20064;-70
2021/08/14 00:30:20;;;;;;;13.80;7.53;;;;;;;20.97;100.00;96426.56;1030767;28;20037;-68
2021/08/14 00:30:51;;;;;;;15.70;7.50;;;;;;;20.99;100.00;96417.13;1034738;28;20018;-70
2021/08/14 00:31:21;;;;;;;13.60;7.30;;;;;;;21.07;100.00;96424.38;1026532;28;20022;-71
2021/08/14 00:31:51;;;;;;;8.80;7.22;;;;;;;21.10;100.00;96420.28;1026251;28;20031;-70
2021/08/14 00:32:22;;;;;;;13.70;6.82;;;;;;;21.08;100.00;96415.25;1026444;28;20042;-70
2021/08/14 00:32:52;;;;;;;11.90;6.97;;;;;;;21.14;100.00;96429.25;1026360;28;20047;-70
2021/08/14 00:33:23;;;;;;;12.15;7.43;;;;;;;21.15;100.00;96426.25;1026593;28;20077;-70
2021/08/14 00:33:53;;;;;;;17.80;7.90;;;;;;;21.19;100.00;96427.22;1023012;28;20432;-69
2021/08/14 00:34:24;;;;;;;13.82;7.30;;;;;;;21.22;100.00;96428.44;1026533;28;20155;-70
2021/08/14 00:34:54;;;;;;;13.70;8.25;;;;;;;21.12;100.00;96426.09;1034894;28;20026;-69
2021/08/14 00:35:24;;;;;;;11.73;7.38;;;;;;;21.13;100.00;96435.69;1030946;28;20056;-70
2021/08/14 00:35:55;;;;;;;15.10;7.35;;;;;;;21.07;100.00;96428.94;1034641;28;20032;-70
2021/08/14 00:36:25;;;;;;;8.90;6.78;;;;;;;21.08;100.00;96430.47;1030708;28;20026;-70
2021/08/14 00:36:56;;;;;;;12.38;7.20;;;;;;;21.07;100.00;96434.25;1030786;28;20031;-70
2021/08/14 00:37:26;;;;;;;15.20;7.88;;;;;;;21.05;100.00;96431.09;1030768;28;20635;-67
2021/08/14 00:37:57;;;;;;;12.10;7.35;;;;;;;20.88;100.00;96411.31;1030960;28;20650;-70
2021/08/14 00:38:27;;;;;;;10.00;7.00;;;;;;;21.02;100.00;96439.72;1025349;28;20128;-69
2021/08/14 00:38:58;;;;;;;11.32;7.75;;;;;;;21.04;100.00;96434.88;1023107;28;20473;-70
2021/08/14 00:39:28;;;;;;;12.80;7.95;;;;;;;21.03;100.00;96436.00;1018782;29;20028;-70
2021/08/14 00:39:59;;;;;;;11.60;7.60;;;;;;;20.98;100.00;96438.78;1026310;28;20078;-70
2021/08/14 00:40:29;;;;;;;13.63;8.18;;;;;;;20.97;100.00;96439.91;1030805;28;20029;-70
2021/08/14 00:40:59;;;;;;;16.70;7.97;;;;;;;20.90;100.00;96441.13;1033578;28;20030;-71
2021/08/14 00:41:30;;;;;;;9.90;7.57;;;;;;;20.90;100.00;96435.81;1038057;28;20534;-70
2021/08/14 00:42:01;;;;;;;10.27;7.70;;;;;;;20.91;100.00;96437.38;1036767;28;20534;-70
2021/08/14 00:42:31;;;;;;;14.43;7.32;;;;;;;20.86;100.00;96439.41;1031093;28;20721;-70
2021/08/14 00:43:02;;;;;;;14.68;8.07;;;;;;;20.90;100.00;96437.69;1030874;28;20117;-70
2021/08/14 00:43:34;;;;;;;11.77;7.63;;;;;;;20.85;100.00;96438.59;1031096;28;20022;-70
2021/08/14 00:44:04;;;;;;;14.30;8.02;;;;;;;20.84;100.00;96437.03;1031143;28;20030;-70
2021/08/14 00:44:35;;;;;;;10.25;7.72;;;;;;;20.83;100.00;96440.81;1035054;28;20500;-70
2021/08/14 00:45:05;;;;;;;9.82;7.57;;;;;;;20.83;100.00;96443.50;1035062;28;20026;-70
2021/08/14 00:45:40;;;;;;;15.90;7.65;;;;;;;20.79;100.00;96431.88;1027120;28;20105;-67
2021/08/14 00:46:11;;;;;;;12.10;7.78;;;;;;;20.80;100.00;96441.44;1022615;28;20019;-70
2021/08/14 00:46:41;;;;;;;13.68;7.80;;;;;;;20.81;100.00;96437.66;1023598;28;20130;-69
2021/08/14 00:47:12;;;;;;;14.27;7.47;;;;;;;20.80;100.00;96433.44;1022901;29;20023;-70
2021/08/14 00:47:42;;;;;;;12.88;7.60;;;;;;;20.77;100.00;96434.06;1026955;28;20027;-68
2021/08/14 00:48:13;;;;;;;13.40;7.60;;;;;;;20.71;100.00;96428.06;1023125;28;20031;-70
2021/08/14 00:48:43;;;;;;;15.40;7.60;;;;;;;20.75;100.00;96436.22;1026794;28;20051;-70
2021/08/14 00:49:14;;;;;;;17.13;7.53;;;;;;;20.76;100.00;96439.69;1022903;29;20023;-70
2021/08/14 00:49:44;;;;;;;13.98;8.05;;;;;;;20.75;100.00;96438.91;1023239;28;20610;-70
2021/08/14 00:50:15;;;;;;;17.05;7.57;;;;;;;20.74;100.00;96437.34;1022741;28;20137;-70
2021/08/14 00:50:45;;;;;;;12.65;6.45;;;;;;;20.77;100.00;96442.06;1031107;28;20038;-70
2021/08/14 00:51:16;;;;;;;12.65;7.07;;;;;;;20.77;100.00;96438.59;1034970;28;20030;-70
2021/08/14 00:51:46;;;;;;;10.95;6.90;;;;;;;20.77;100.00;96441.28;1030674;28;20030;-70
2021/08/14 00:52:16;;;;;;;10.07;7.50;;;;;;;20.76;100.00;96435.16;1034630;28;20025;-70
2021/08/14 00:52:47;;;;;;;13.27;7.30;;;;;;;20.75;100.00;96438.91;1034687;28;20060;-70
2021/08/14 00:53:17;;;;;;;12.07;7.30;;;;;;;20.78;100.00;96432.16;1030782;28;20026;-70
2021/08/14 00:53:48;;;;;;;10.60;6.60;;;;;;;20.77;100.00;96430.59;1034561;28;20026;-70
2021/08/14 00:54:18;;;;;;;12.05;7.65;;;;;;;20.68;100.00;96419.91;1035107;28;20132;-70
2021/08/14 00:54:49;;;;;;;13.25;7.85;;;;;;;20.71;100.00;96433.41;1031087;28;20032;-70
2021/08/14 00:55:19;;;;;;;14.00;7.25;;;;;;;20.70;100.00;96441.72;1026203;28;20031;-70
2021/08/14 00:55:50;;;;;;;12.35;7.15;;;;;;;20.69;100.00;96434.81;1027022;28;20066;-70
2021/08/14 00:56:21;;;;;;;20.25;8.32;;;;;;;20.69;100.00;96432.13;1027155;28;20031;-69
2021/08/14 00:56:52;;;;;;;15.40;7.97;;;;;;;20.71;100.00;96433.41;1022812;28;20568;-70
2021/08/14 00:57:22;;;;;;;13.52;7.72;;;;;;;20.66;100.00;96430.13;1026850;28;20035;-68
2021/08/14 00:57:53;;;;;;;10.65;7.45;;;;;;;20.68;100.00;96438.56;1031039;28;20022;-70
2021/08/14 00:58:23;;;;;;;12.13;7.80;;;;;;;20.61;100.00;96422.25;1031047;28;20037;-70
2021/08/14 00:58:54;;;;;;;13.15;7.65;;;;;;;20.59;100.00;96421.75;1026508;28;20089;-70
2021/08/14 00:59:28;;;;;;;11.38;7.75;;;;;;;20.57;100.00;96418.63;1022846;29;20026;-70
2021/08/14 00:59:58;;;;;;;15.07;7.60;;;;;;;20.54;100.00;96421.91;1027153;28;20027;-70
2021/08/14 01:00:29;;;;;;;16.33;7.90;;;;;;;20.63;100.00;96433.41;1030476;28;20078;-70
2021/08/14 01:00:59;;;;;;;11.48;7.55;;;;;;;20.64;100.00;96426.97;1027092;28;20018;-71
2021/08/14 01:01:30;;;;;;;13.88;7.95;;;;;;;20.63;100.00;96430.72;1022658;29;20031;-71
2021/08/14 01:02:03;;;;;;;11.57;7.25;;;;;;;20.57;100.00;96418.63;1017861;29;20031;-70
2021/08/14 01:02:34;;;;;;;11.27;6.97;;;;;;;20.66;100.00;96435.44;1026918;28;20115;-70
2021/08/14 01:03:04;;;;;;;9.90;7.35;;;;;;;20.57;100.00;96415.97;1027498;28;20030;-70
2021/08/14 01:03:35;;;;;;;15.95;7.70;;;;;;;20.64;100.00;96433.06;1026840;28;20386;-69
2021/08/14 01:04:05;;;;;;;9.93;6.88;;;;;;;20.61;100.00;96431.03;1022435;28;20086;-70
2021/08/14 01:04:36;;;;;;;10.88;7.55;;;;;;;20.61;100.00;96430.25;1026844;28;20037;-70
2021/08/14 01:05:08;;;;;;;10.38;7.40;;;;;;;20.62;100.00;96426.47;1030979;28;20074;-70
2021/08/14 01:05:44;;;;;;;10.57;7.10;;;;;;;20.57;100.00;96414.06;1029454;28;20027;-70
2021/08/14 01:06:14;;;;;;;9.50;7.07;;;;;;;20.65;100.00;96431.19;1025866;28;20022;-70
2021/08/14 01:06:45;;;;;;;10.02;6.70;;;;;;;20.63;100.00;96433.41;1023978;28;20637;-70
2021/08/14 01:07:16;;;;;;;10.43;7.63;;;;;;;20.58;100.00;96422.84;1028018;28;20027;-70
2021/08/14 01:07:49;;;;;;;12.07;7.10;;;;;;;20.59;100.00;96427.91;1026674;28;20117;-70
2021/08/14 01:08:19;;;;;;;10.82;7.50;;;;;;;20.63;100.00;96430.72;1030997;28;20583;-70
2021/08/14 01:08:50;;;;;;;10.35;7.40;;;;;;;20.63;100.00;96425.41;1023171;28;20034;-70
2021/08/14 01:09:21;;;;;;;9.32;7.18;;;;;;;20.60;100.00;96426.78;1027303;28;20030;-70
2021/08/14 01:09:51;;;;;;;11.63;6.90;;;;;;;20.57;100.00;96421.28;1031306;28;20034;-70
2021/08/14 01:10:24;;;;;;;10.10;6.85;;;;;;;20.57;100.00;96431.97;1035158;28;20042;-70
2021/08/14 01:10:55;;;;;;;9.75;6.85;;;;;;;20.51;100.00;96419.84;1034676;28;20022;-71
2021/08/14 01:11:26;;;;;;;9.40;7.10;;;;;;;20.53;100.00;96425.69;1035065;28;20565;-70
2021/08/14 01:11:57;;;;;;;11.90;7.57;;;;;;;20.52;100.00;96421.44;1025411;28;20130;-70
2021/08/14 01:12:27;;;;;;;12.48;7.55;;;;;;;20.55;100.00;96426.13;1030452;28;20040;-68
2021/08/14 01:12:58;;;;;;;13.20;7.65;;;;;;;20.53;100.00;96420.34;1026890;28;20042;-70
2021/08/14 01:13:28;;;;;;;10.02;7.57;;;;;;;20.53;100.00;96425.69;1022920;29;20066;-68
2021/08/14 01:13:58;;;;;;;9.93;7.53;;;;;;;20.53;100.00;96431.00;1026851;28;20027;-69
2021/08/14 01:14:31;;;;;;;13.27;7.47;;;;;;;20.48;100.00;96419.34;1026657;28;20026;-67
2021/08/14 01:15:02;;;;;;;9.00;6.40;;;;;;;20.47;100.00;96419.66;1031219;28;20068;-69
2021/08/14 01:15:33;;;;;;;18.67;7.80;;;;;;;20.53;100.00;96428.34;1030864;28;20069;-66
2021/08/14 01:16:05;;;;;;;9.85;7.28;;;;;;;20.50;100.00;96429.72;1027123;28;20030;-70
2021/08/14 01:16:35;;;;;;;8.77;7.22;;;;;;;20.49;100.00;96428.94;1026955;28;20035;-68
2021/08/14 01:17:06;;;;;;;8.65;7.07;;;;;;;20.46;100.00;96431.44;1027498;28;20673;-71
2021/08/14 01:17:36;;;;;;;9.77;7.75;;;;;;;20.39;100.00;96415.88;1034766;28;20439;-71
2021/08/14 01:18:07;;;;;;;13.40;7.95;;;;;;;20.44;100.00;96425.63;1037511;28;20014;-70
2021/08/14 01:18:41;;;;;;;12.57;6.90;;;;;;;20.35;100.00;96414.91;1030802;28;20057;-70
2021/08/14 01:19:11;;;;;;;11.48;8.02;;;;;;;20.37;100.00;96423.41;1026834;28;20033;-69
2021/08/14 01:19:46;;;;;;;11.15;7.63;;;;;;;20.43;100.00;96421.38;1021075;28;20733;-70
2021/08/14 01:20:16;;;;;;;12.10;7.65;;;;;;;20.43;100.00;96416.84;1023843;28;20031;-68
2021/08/14 01:20:47;;;;;;;12.18;7.18;;;;;;;20.46;100.00;96424.22;1028373;28;20493;-69
2021/08/14 01:21:19;;;;;;;10.55;7.53;;;;;;;20.49;100.00;96426.28;1030691;28;20775;-69
2021/08/14 01:21:50;;;;;;;14.13;7.97;;;;;;;20.47;100.00;96419.66;1030468;28;20034;-69
2021/08/14 01:22:20;;;;;;;11.75;7.03;;;;;;;20.45;100.00;96419.97;1030581;28;20034;-70
2021/08/14 01:22:51;;;;;;;12.80;7.45;;;;;;;20.45;100.00;96419.97;1030719;28;20030;-68
2021/08/14 01:23:22;;;;;;;10.80;8.00;;;;;;;20.43;100.00;96424.84;1030873;28;20095;-71
2021/08/14 01:23:52;;;;;;;35.25;9.32;;;;;;;20.39;100.00;96415.09;1031047;28;20018;-72
2021/08/14 01:24:23;;;;;;;21.30;8.43;;;;;;;20.44;100.00;96421.06;1026831;28;20042;-70
2021/08/14 01:24:53;;;;;;;23.40;8.07;;;;;;;20.47;100.00;96422.34;1030936;28;20041;-71
2021/08/14 01:25:24;;;;;;;24.13;8.45;;;;;;;20.45;100.00;96425.28;1030773;28;20030;-71
2021/08/14 01:26:21;;;;;;;10.52;6.82;;;;;;;20.44;100.00;96423.72;1026860;28;20420;-70
2021/08/14 01:26:51;;;;;;;11.40;7.43;;;;;;;20.42;100.00;96425.94;1024631;28;20041;-70
2021/08/14 01:27:22;;;;;;;12.38;7.40;;;;;;;20.42;100.00;96427.78;1017180;29;20028;-67
2021/08/14 01:27:53;;;;;;;14.68;7.47;;;;;;;20.42;100.00;96420.59;1028850;28;20100;-70
2021/08/14 01:28:24;;;;;;;15.52;7.70;;;;;;;20.41;100.00;96419.00;1026798;28;20026;-70
2021/08/14 01:28:54;;;;;;;13.35;7.45;;;;;;;20.39;100.00;96426.56;1030912;28;20030;-71
2021/08/14 01:29:25;;;;;;;10.60;7.45;;;;;;;20.41;100.00;96419.00;1034798;28;20026;-71
2021/08/14 01:29:55;;;;;;;9.77;6.88;;;;;;;20.37;100.00;96412.72;1026409;28;20027;-69
2021/08/14 01:30:26;;;;;;;14.10;7.13;;;;;;;20.37;100.00;96418.06;1030965;28;20034;-69
2021/08/14 01:30:57;;;;;;;10.60;7.07;;;;;;;20.30;100.00;96412.41;1030602;28;20052;-68
2021/08/14 01:31:28;;;;;;;10.93;6.82;;;;;;;20.35;100.00;96419.47;1027114;28;20042;-71
2021/08/14 01:31:58;;;;;;;8.95;7.55;;;;;;;20.30;100.00;96416.94;1034041;28;20223;-69
2021/08/14 01:32:29;;;;;;;12.88;7.22;;;;;;;20.28;100.00;96409.25;1026927;28;20034;-70
2021/08/14 01:32:59;;;;;;;9.73;7.40;;;;;;;20.31;100.00;96427.28;1026551;28;20037;-68
2021/08/14 01:33:34;;;;;;;8.95;7.40;;;;;;;20.24;100.00;96418.94;1026233;28;20524;-69
2021/08/14 01:34:05;;;;;;;14.57;7.60;;;;;;;20.28;100.00;96425.22;1026817;28;20038;-70
2021/08/14 01:34:37;;;;;;;10.98;7.28;;;;;;;20.29;100.00;96431.34;1023407;28;20035;-69
2021/08/14 01:35:07;;;;;;;14.75;7.60;;;;;;;20.22;100.00;96418.47;1022680;29;20559;-69
2021/08/14 01:35:42;;;;;;;20.63;7.75;;;;;;;20.28;100.00;96422.56;1018911;29;20028;-70
2021/08/14 01:36:14;;;;;;;15.35;7.53;;;;;;;20.29;100.00;96432.16;1024328;28;20394;-71
2021/08/14 01:36:55;;;;;;;18.67;7.40;;;;;;;20.26;100.00;96427.44;1027259;28;20030;-69
2021/08/14 01:37:26;;;;;;;11.93;7.63;;;;;;;20.27;100.00;96434.34;1027121;28;20027;-70
2021/08/14 01:37:57;;;;;;;12.05;7.68;;;;;;;20.29;100.00;96432.16;1028816;28;20054;-70
2021/08/14 01:38:27;;;;;;;8.73;7.00;;;;;;;20.28;100.00;96430.56;1026605;28;20543;-70
2021/08/14 01:39:00;;;;;;;10.27;6.93;;;;;;;20.31;100.00;96429.16;1024200;28;20087;-70
2021/08/14 01:39:30;;;;;;;12.80;7.55;;;;;;;20.32;100.00;96426.22;1027747;28;20018;-70
2021/08/14 01:40:01;;;;;;;11.18;7.18;;;;;;;20.27;100.00;96421.00;1032379;28;20033;-70
2021/08/14 01:40:31;;;;;;;10.35;7.50;;;;;;;20.28;100.00;96414.56;1027112;28;20031;-70
2021/08/14 01:41:05;;;;;;;13.05;7.78;;;;;;;20.28;100.00;96409.25;1030896;28;20025;-70
2021/08/14 01:41:36;;;;;;;11.85;7.32;;;;;;;20.34;100.00;96429.34;1029770;28;20443;-70
2021/08/14 01:42:07;;;;;;;14.07;7.72;;;;;;;20.31;100.00;96413.19;1022600;28;20038;-70
2021/08/14 01:42:37;;;;;;;12.25;7.28;;;;;;;20.33;100.00;96427.78;1018891;29;20028;-69
2021/08/14 01:43:07;;;;;;;12.32;7.57;;;;;;;20.36;100.00;96421.06;1021209;28;20110;-70
2021/08/14 01:43:57;;;;;;;10.45;7.22;;;;;;;20.35;100.00;96417.56;1025424;28;20027;-69
2021/08/14 01:44:28;;;;;;;10.80;7.57;;;;;;;20.33;100.00;96416.34;1026209;28;20022;-68
2021/08/14 01:44:59;;;;;;;10.63;6.78;;;;;;;20.36;100.00;96421.84;1026098;28;20079;-70
2021/08/14 01:45:29;;;;;;;10.85;7.57;;;;;;;20.30;100.00;96420.41;1028971;28;20034;-70
2021/08/14 01:46:00;;;;;;;10.88;7.47;;;;;;;20.35;100.00;96425.56;1026915;28;20026;-70
2021/08/14 01:46:34;;;;;;;9.27;7.45;;;;;;;20.36;100.00;96424.50;1029513;28;20014;-69
2021/08/14 01:47:04;;;;;;;11.02;8.35;;;;;;;20.36;100.00;96429.06;1034665;28;20119;-70
2021/08/14 01:47:35;;;;;;;13.73;7.60;;;;;;;20.37;100.00;96431.38;1035078;28;20021;-71
2021/08/14 01:48:05;;;;;;;13.75;8.07;;;;;;;20.38;100.00;96421.50;1034399;28;20462;-70
2021/08/14 01:48:36;;;;;;;10.23;7.47;;;;;;;20.38;100.00;96424.19;1026527;28;20027;-71
2021/08/14 01:49:06;;;;;;;13.23;7.28;;;;;;;20.29;100.00;96421.50;1022743;28;20035;-70
2021/08/14 01:49:37;;;;;;;9.98;7.75;;;;;;;20.35;100.00;96425.56;1022726;28;20393;-70
2021/08/14 01:50:08;;;;;;;11.73;7.85;;;;;;;20.30;100.00;96423.06;1026447;28;20572;-70
2021/08/14 01:50:38;;;;;;;11.23;7.55;;;;;;;20.34;100.00;96418.69;1034821;28;20435;-70
2021/08/14 01:51:09;;;;;;;10.55;7.35;;;;;;;20.36;100.00;96427.16;1038859;28;20029;-71
2021/08/14 01:51:39;;;;;;;11.90;7.90;;;;;;;20.35;100.00;96430.13;1037919;28;20587;-67
2021/08/14 01:52:13;;;;;;;9.82;7.93;;;;;;;20.35;100.00;96430.13;1036699;28;20156;-70
2021/08/14 01:52:44;;;;;;;8.70;6.82;;;;;;;20.32;100.00;96423.56;1038767;28;20028;-71
2021/08/14 01:53:14;;;;;;;9.85;7.10;;;;;;;20.29;100.00;96424.16;1038383;28;20045;-70
2021/08/14 01:53:48;;;;;;;10.73;7.40;;;;;;;20.24;100.00;96418.94;1034591;28;20022;-70
2021/08/14 01:54:20;;;;;;;9.82;7.53;;;;;;;20.29;100.00;96429.50;1031211;28;20026;-70
2021/08/14 01:54:51;;;;;;;10.57;7.32;;;;;;;20.28;100.00;96422.56;1029989;28;20018;-68
2021/08/14 01:55:21;;;;;;;11.90;7.72;;;;;;;20.22;100.00;96416.59;1027317;28;20027;-69
2021/08/14 01:55:52;;;;;;;10.95;7.95;;;;;;;20.23;100.00;96422.72;1026778;28;20023;-69
2021/08/14 01:56:22;;;;;;;8.98;7.68;;;;;;;20.20;100.00;96418.00;1026531;28;20053;-68
2021/08/14 01:56:53;;;;;;;15.05;7.85;;;;;;;20.18;100.00;96422.84;1026406;28;20038;-68
2021/08/14 01:57:23;;;;;;;13.50;8.00;;;;;;;20.16;100.00;96422.38;1030570;28;20034;-70
2021/08/14 01:57:54;;;;;;;15.13;7.70;;;;;;;20.15;100.00;96423.44;1026586;28;20025;-71
2021/08/14 01:58:24;;;;;;;13.43;7.30;;;;;;;20.12;100.00;96424.06;1030244;28;20026;-68
2021/08/14 01:58:55;;;;;;;13.15;7.78;;;;;;;20.05;100.00;96413.06;1030600;28;20022;-71
2021/08/14 01:59:25;;;;;;;10.50;7.72;;;;;;;20.09;100.00;96422.03;1026537;28;20029;-67
2021/08/14 01:59:56;;;;;;;10.40;7.78;;;;;;;20.08;100.00;96420.44;1022678;28;20031;-70
2021/08/14 02:00:26;;;;;;;13.13;8.30;;;;;;;20.02;100.00;96417.94;1026662;28;20046;-70
2021/08/14 02:00:56;;;;;;;10.23;7.65;;;;;;;19.95;100.00;96412.25;1018841;29;20071;-70
2021/08/14 02:01:27;;;;;;;12.52;8.20;;;;;;;19.99;100.00;96418.53;1022615;28;20030;-70
2021/08/14 02:01:57;;;;;;;13.32;8.23;;;;;;;19.98;100.00;96424.94;1017036;29;20034;-71
2021/08/14 02:02:29;;;;;;;13.02;6.95;;;;;;;19.98;100.00;96424.94;1018876;28;20035;-71
2021/08/14 02:03:00;;;;;;;11.88;7.90;;;;;;;19.92;100.00;96415.53;1026904;28;20085;-70
2021/08/14 02:03:30;;;;;;;10.82;7.70;;;;;;;19.96;100.00;96427.13;1022936;28;20024;-71
2021/08/14 02:04:00;;;;;;;9.45;8.10;;;;;;;19.94;100.00;96429.31;1030527;28;20037;-70
2021/08/14 02:04:31;;;;;;;12.52;7.85;;;;;;;19.93;100.00;96430.41;1023378;29;20023;-70
2021/08/14 02:05:03;;;;;;;14.95;7.63;;;;;;;19.91;100.00;96427.25;1019379;29;20140;-68
2021/08/14 02:05:33;;;;;;;12.27;7.97;;;;;;;19.91;100.00;96419.25;1023512;29;20120;-70
2021/08/14 02:06:06;;;;;;;15.43;8.27;;;;;;;19.90;100.00;96424.91;1027497;28;20061;-70
2021/08/14 02:06:36;;;;;;;13.15;7.65;;;;;;;19.88;100.00;96427.09;1031504;28;20057;-70
2021/08/14 02:07:07;;;;;;;11.20;7.65;;;;;;;19.85;100.00;96423.16;1034183;28;20084;-71
2021/08/14 02:07:37;;;;;;;13.05;7.82;;;;;;;19.84;100.00;96418.13;1035460;28;20753;-70
2021/08/14 02:08:08;;;;;;;10.20;8.45;;;;;;;19.83;100.00;96416.56;1031240;28;20547;-69
2021/08/14 02:08:38;;;;;;;11.68;8.65;;;;;;;19.81;100.00;96421.41;1028421;28;20035;-69
2021/08/14 02:09:09;;;;;;;14.13;8.18;;;;;;;19.72;100.00;96413.38;1023352;28;20027;-70
2021/08/14 02:09:39;;;;;;;12.65;8.30;;;;;;;19.75;100.00;96413.56;1027681;28;20505;-70
2021/08/14 02:10:10;;;;;;;12.52;7.70;;;;;;;19.76;100.00;96419.66;1026851;28;20062;-67
2021/08/14 02:10:40;;;;;;;10.57;8.20;;;;;;;19.75;100.00;96426.88;1025966;28;20031;-70
2021/08/14 02:11:18;;;;;;;11.27;8.32;;;;;;;19.74;100.00;96421.84;1032029;28;20945;-65
2021/08/14 02:11:49;;;;;;;12.63;8.50;;;;;;;19.73;100.00;96425.59;1030523;28;20114;-69
2021/08/14 02:12:19;;;;;;;10.10;7.70;;;;;;;19.70;100.00;96420.88;1032869;28;20037;-68
2021/08/14 02:12:50;;;;;;;17.40;9.07;;;;;;;19.69;100.00;96419.31;1031253;28;20029;-69
2021/08/14 02:13:20;;;;;;;11.70;7.95;;;;;;;19.67;100.00;96429.47;1032056;28;20026;-68
2021/08/14 02:13:51;;;;;;;13.90;8.25;;;;;;;19.56;100.00;96410.25;1035136;28;20025;-69
2021/08/14 02:14:21;;;;;;;12.73;7.85;;;;;;;19.62;100.00;96424.25;1031281;28;20061;-68
2021/08/14 02:14:52;;;;;;;12.35;8.60;;;;;;;19.60;100.00;96423.75;1039414;28;20784;-70
2021/08/14 02:15:22;;;;;;;13.85;8.15;;;;;;;19.58;100.00;96423.25;1030183;28;20361;-70
2021/08/14 02:15:53;;;;;;;13.18;8.45;;;;;;;19.54;100.00;96425.75;1027468;28;20018;-69
2021/08/14 02:16:23;;;;;;;12.52;8.68;;;;;;;19.47;100.00;96418.19;1033537;28;20026;-68
2021/08/14 02:16:54;;;;;;;10.60;8.48;;;;;;;19.52;100.00;96425.28;1031522;28;20036;-70
2021/08/14 02:17:24;;;;;;;10.82;7.90;;;;;;;19.49;100.00;96426.66;1035388;28;20018;-69
2021/08/14 02:17:54;;;;;;;13.93;8.32;;;;;;;19.47;100.00;96428.03;1032429;28;20029;-70
2021/08/14 02:18:25;;;;;;;10.13;8.23;;;;;;;19.45;100.00;96433.69;1035504;28;20026;-69
2021/08/14 02:18:58;;;;;;;11.93;8.73;;;;;;;19.43;100.00;96433.19;1031459;28;20058;-70
2021/08/14 02:19:29;;;;;;;10.57;8.20;;;;;;;19.39;100.00;96421.59;1031774;28;20045;-69
2021/08/14 02:19:59;;;;;;;13.20;8.13;;;;;;;19.35;100.00;96422.47;1031614;28;20396;-70
2021/08/14 02:20:30;;;;;;;14.90;8.40;;;;;;;19.39;100.00;96421.59;1018104;29;20490;-69
2021/08/14 02:21:01;;;;;;;12.73;8.73;;;;;;;19.39;100.00;96426.91;1023306;28;20045;-70
2021/08/14 02:21:31;;;;;;;13.05;8.35;;;;;;;19.38;100.00;96433.28;1027464;28;20019;-68
2021/08/14 02:22:01;;;;;;;15.65;8.98;;;;;;;19.37;100.00;96430.94;1026790;28;20026;-72
2021/08/14 02:22:32;;;;;;;14.43;9.13;;;;;;;19.33;100.00;96420.13;1039459;28;20018;-69
2021/08/14 02:23:02;;;;;;;14.60;8.73;;;;;;;19.33;100.00;96427.31;1036383;28;20022;-67